sensor_id;sensor_type;location;lat;lon;timestamp;pressure;altitude;pressure_sealevel;temperature;humidity
16595;BME280;8410;52.532;13.336;2022-12-08T00:01:13;100474.63;;;4.45;84.58
16595;BME280;8410;52.532;13.336;2022-12-08T00:03:42;100471.31;;;4.47;85.42
16595;BME280;8410;52.532;13.336;2022-12-08T00:06:16;100470.66;;;3.55;86.33
16595;BME280;8410;52.532;13.336;2022-12-08T00:09:11;100470.94;;;4.36;85.34
16595;BME280;8410;52.532;13.336;2022-12-08T00:11:55;100467.59;;;4.64;84.90
16595;BME280;8410;52.532;13.336;2022-12-08T00:14:24;100467.03;;;4.20;84.51
16595;BME280;8410;52.532;13.336;2022-12-08T00:16:52;100465.56;;;4.54;85.95
16595;BME280;8410;52.532;13.336;2022-12-08T00:19:21;100465.09;;;4.39;84.43
16595;BME280;8410;52.532;13.336;2022-12-08T00:21:49;100463.78;;;3.76;88.88
16595;BME280;8410;52.532;13.336;2022-12-08T00:24:19;100462.44;;;4.36;88.07
16595;BME280;8410;52.532;13.336;2022-12-08T00:26:47;100461.63;;;4.37;87.78
16595;BME280;8410;52.532;13.336;2022-12-08T00:29:15;100458.19;;;4.11;86.47
16595;BME280;8410;52.532;13.336;2022-12-08T00:31:43;100453.78;;;4.31;86.25
16595;BME280;8410;52.532;13.336;2022-12-08T00:34:11;100446.41;;;4.66;85.30
16595;BME280;8410;52.532;13.336;2022-12-08T00:36:39;100442.97;;;4.12;87.99
16595;BME280;8410;52.532;13.336;2022-12-08T00:39:06;100440.47;;;4.67;86.08
16595;BME280;8410;52.532;13.336;2022-12-08T00:41:35;100436.72;;;4.55;85.85
16595;BME280;8410;52.532;13.336;2022-12-08T00:44:20;100433.94;;;4.48;87.65
16595;BME280;8410;52.532;13.336;2022-12-08T00:46:48;100438.34;;;4.53;86.40
16595;BME280;8410;52.532;13.336;2022-12-08T00:49:16;100438.44;;;4.56;86.30
16595;BME280;8410;52.532;13.336;2022-12-08T00:51:44;100430.47;;;5.01;84.87
16595;BME280;8410;52.532;13.336;2022-12-08T00:54:11;100438.59;;;4.34;84.51
16595;BME280;8410;52.532;13.336;2022-12-08T00:56:40;100446.94;;;4.30;87.42
16595;BME280;8410;52.532;13.336;2022-12-08T00:59:08;100446.94;;;4.04;87.58
16595;BME280;8410;52.532;13.336;2022-12-08T01:01:36;100431.56;;;4.81;86.56
16595;BME280;8410;52.532;13.336;2022-12-08T01:04:04;100436.31;;;3.44;88.87
16595;BME280;8410;52.532;13.336;2022-12-08T01:06:33;100430.53;;;4.49;89.03
16595;BME280;8410;52.532;13.336;2022-12-08T01:09:03;100430.28;;;4.67;88.76
16595;BME280;8410;52.532;13.336;2022-12-08T01:11:31;100437.81;;;4.11;86.99
16595;BME280;8410;52.532;13.336;2022-12-08T01:14:01;100427.75;;;4.95;86.65
16595;BME280;8410;52.532;13.336;2022-12-08T01:16:30;100428.75;;;5.00;85.30
16595;BME280;8410;52.532;13.336;2022-12-08T01:18:58;100433.84;;;4.72;86.88
16595;BME280;8410;52.532;13.336;2022-12-08T01:21:26;100437.03;;;4.13;87.48
16595;BME280;8410;52.532;13.336;2022-12-08T01:23:54;100437.84;;;4.38;88.25
16595;BME280;8410;52.532;13.336;2022-12-08T01:26:23;100429.56;;;4.99;85.91
16595;BME280;8410;52.532;13.336;2022-12-08T01:28:51;100416.97;;;5.34;85.16
16595;BME280;8410;52.532;13.336;2022-12-08T01:31:21;100424.50;;;5.29;85.07
16595;BME280;8410;52.532;13.336;2022-12-08T01:33:49;100419.34;;;5.28;84.16
16595;BME280;8410;52.532;13.336;2022-12-08T01:36:19;100423.19;;;5.14;85.64
16595;BME280;8410;52.532;13.336;2022-12-08T01:38:47;100416.81;;;5.28;85.21
16595;BME280;8410;52.532;13.336;2022-12-08T01:41:17;100409.97;;;5.27;85.00
16595;BME280;8410;52.532;13.336;2022-12-08T01:43:54;100397.03;;;5.21;85.71
16595;BME280;8410;52.532;13.336;2022-12-08T01:46:24;100396.53;;;5.34;85.66
16595;BME280;8410;52.532;13.336;2022-12-08T01:48:54;100385.72;;;5.13;84.46
16595;BME280;8410;52.532;13.336;2022-12-08T01:51:23;100388.50;;;5.20;84.99
16595;BME280;8410;52.532;13.336;2022-12-08T01:53:51;100382.53;;;5.20;84.62
16595;BME280;8410;52.532;13.336;2022-12-08T01:56:24;100382.53;;;5.20;85.42
16595;BME280;8410;52.532;13.336;2022-12-08T01:58:54;100384.25;;;5.21;84.54
16595;BME280;8410;52.532;13.336;2022-12-08T02:01:23;100381.00;;;5.25;84.91
16595;BME280;8410;52.532;13.336;2022-12-08T02:03:54;100380.22;;;4.97;83.82
16595;BME280;8410;52.532;13.336;2022-12-08T02:06:25;100375.19;;;5.30;86.05
16595;BME280;8410;52.532;13.336;2022-12-08T02:08:53;100365.81;;;5.29;84.83
16595;BME280;8410;52.532;13.336;2022-12-08T02:11:21;100367.16;;;5.17;84.81
16595;BME280;8410;52.532;13.336;2022-12-08T02:13:49;100364.50;;;4.55;86.00
16595;BME280;8410;52.532;13.336;2022-12-08T02:16:28;100359.56;;;5.20;85.89
16595;BME280;8410;52.532;13.336;2022-12-08T02:19:13;100355.94;;;5.12;85.60
16595;BME280;8410;52.532;13.336;2022-12-08T02:22:13;100358.13;;;4.99;86.60
16595;BME280;8410;52.532;13.336;2022-12-08T02:24:46;100360.91;;;4.77;86.58
16595;BME280;8410;52.532;13.336;2022-12-08T02:27:27;100357.03;;;5.20;87.69
16595;BME280;8410;52.532;13.336;2022-12-08T02:30:10;100350.75;;;5.08;85.41
16595;BME280;8410;52.532;13.336;2022-12-08T02:33:04;100351.22;;;4.95;85.02
16595;BME280;8410;52.532;13.336;2022-12-08T02:35:40;100343.59;;;4.97;86.25
16595;BME280;8410;52.532;13.336;2022-12-08T02:38:19;100340.16;;;5.25;85.93
16595;BME280;8410;52.532;13.336;2022-12-08T02:40:56;100333.16;;;5.18;86.30
16595;BME280;8410;52.532;13.336;2022-12-08T02:43:29;100338.41;;;4.94;88.19
16595;BME280;8410;52.532;13.336;2022-12-08T02:46:00;100332.72;;;5.34;87.17
16595;BME280;8410;52.532;13.336;2022-12-08T02:48:31;100324.75;;;5.22;84.90
16595;BME280;8410;52.532;13.336;2022-12-08T02:51:00;100329.69;;;5.47;86.29
16595;BME280;8410;52.532;13.336;2022-12-08T02:53:31;100320.72;;;5.30;86.21
16595;BME280;8410;52.532;13.336;2022-12-08T02:56:02;100316.84;;;5.13;86.03
16595;BME280;8410;52.532;13.336;2022-12-08T02:58:49;100316.13;;;5.48;86.25
16595;BME280;8410;52.532;13.336;2022-12-08T03:01:32;100308.28;;;5.42;85.73
16595;BME280;8410;52.532;13.336;2022-12-08T03:04:07;100308.53;;;5.51;86.43
16595;BME280;8410;52.532;13.336;2022-12-08T03:06:43;100307.22;;;5.34;85.40
16595;BME280;8410;52.532;13.336;2022-12-08T03:09:16;100297.06;;;5.36;87.00
16595;BME280;8410;52.532;13.336;2022-12-08T03:11:48;100291.66;;;5.57;86.43
16595;BME280;8410;52.532;13.336;2022-12-08T03:14:20;100290.16;;;5.65;85.32
16595;BME280;8410;52.532;13.336;2022-12-08T03:16:52;100298.00;;;5.39;86.50
16595;BME280;8410;52.532;13.336;2022-12-08T03:19:23;100289.81;;;5.51;85.55
16595;BME280;8410;52.532;13.336;2022-12-08T03:21:55;100294.63;;;5.08;86.26
16595;BME280;8410;52.532;13.336;2022-12-08T03:24:30;100290.13;;;5.31;86.31
16595;BME280;8410;52.532;13.336;2022-12-08T03:27:02;100289.59;;;5.43;86.22
16595;BME280;8410;52.532;13.336;2022-12-08T03:29:31;100294.28;;;5.28;85.68
16595;BME280;8410;52.532;13.336;2022-12-08T03:32:05;100294.38;;;5.31;86.10
16595;BME280;8410;52.532;13.336;2022-12-08T03:34:34;100279.88;;;5.62;86.50
16595;BME280;8410;52.532;13.336;2022-12-08T03:37:04;100281.09;;;5.44;86.07
16595;BME280;8410;52.532;13.336;2022-12-08T03:39:32;100273.06;;;5.64;85.23
16595;BME280;8410;52.532;13.336;2022-12-08T03:41:59;100266.00;;;5.52;85.00
16595;BME280;8410;52.532;13.336;2022-12-08T03:44:27;100272.28;;;5.65;85.55
16595;BME280;8410;52.532;13.336;2022-12-08T03:46:54;100264.88;;;5.77;85.69
16595;BME280;8410;52.532;13.336;2022-12-08T03:49:21;100269.94;;;5.74;84.58
16595;BME280;8410;52.532;13.336;2022-12-08T03:51:49;100258.34;;;5.19;87.22
16595;BME280;8410;52.532;13.336;2022-12-08T03:54:18;100260.25;;;5.61;86.73
16595;BME280;8410;52.532;13.336;2022-12-08T03:56:46;100261.59;;;5.46;84.29
16595;BME280;8410;52.532;13.336;2022-12-08T03:59:13;100256.53;;;5.15;87.91
16595;BME280;8410;52.532;13.336;2022-12-08T04:01:40;100248.75;;;5.43;86.92
16595;BME280;8410;52.532;13.336;2022-12-08T04:04:08;100248.91;;;5.49;86.66
16595;BME280;8410;52.532;13.336;2022-12-08T04:06:36;100242.59;;;5.35;88.29
16595;BME280;8410;52.532;13.336;2022-12-08T04:09:03;100242.78;;;5.43;86.99
16595;BME280;8410;52.532;13.336;2022-12-08T04:11:32;100232.47;;;5.74;86.26
16595;BME280;8410;52.532;13.336;2022-12-08T04:13:59;100235.53;;;5.60;85.58
16595;BME280;8410;52.532;13.336;2022-12-08T04:16:27;100236.72;;;5.38;86.86
16595;BME280;8410;52.532;13.336;2022-12-08T04:18:54;100232.47;;;5.74;86.75
16595;BME280;8410;52.532;13.336;2022-12-08T04:21:22;100233.31;;;5.73;86.14
16595;BME280;8410;52.532;13.336;2022-12-08T04:23:49;100240.72;;;5.63;85.83
16595;BME280;8410;52.532;13.336;2022-12-08T04:26:24;100238.44;;;5.39;85.32
16595;BME280;8410;52.532;13.336;2022-12-08T04:28:53;100227.69;;;5.52;85.60
16595;BME280;8410;52.532;13.336;2022-12-08T04:31:20;100229.13;;;5.41;85.20
16595;BME280;8410;52.532;13.336;2022-12-08T04:33:48;100229.00;;;5.36;85.25
16595;BME280;8410;52.532;13.336;2022-12-08T04:36:15;100232.16;;;4.62;85.64
16595;BME280;8410;52.532;13.336;2022-12-08T04:38:43;100229.50;;;4.59;87.69
16595;BME280;8410;52.532;13.336;2022-12-08T04:41:10;100229.50;;;4.59;90.91
16595;BME280;8410;52.532;13.336;2022-12-08T04:43:38;100226.75;;;5.14;87.18
16595;BME280;8410;52.532;13.336;2022-12-08T04:46:08;100230.50;;;4.96;86.98
16595;BME280;8410;52.532;13.336;2022-12-08T04:48:36;100225.97;;;5.18;87.40
16595;BME280;8410;52.532;13.336;2022-12-08T04:51:05;100225.66;;;5.05;87.34
16595;BME280;8410;52.532;13.336;2022-12-08T04:53:32;100221.94;;;4.94;85.79
16595;BME280;8410;52.532;13.336;2022-12-08T04:56:00;100221.63;;;5.14;88.81
16595;BME280;8410;52.532;13.336;2022-12-08T04:58:27;100218.13;;;5.10;87.00
16595;BME280;8410;52.532;13.336;2022-12-08T05:00:54;100220.22;;;5.25;88.99
16595;BME280;8410;52.532;13.336;2022-12-08T05:03:23;100218.50;;;4.92;89.19
16595;BME280;8410;52.532;13.336;2022-12-08T05:05:54;100213.31;;;5.56;87.69
16595;BME280;8410;52.532;13.336;2022-12-08T05:08:21;100215.53;;;5.08;87.94
16595;BME280;8410;52.532;13.336;2022-12-08T05:10:49;100214.97;;;5.53;87.21
16595;BME280;8410;52.532;13.336;2022-12-08T05:13:16;100204.38;;;5.73;87.14
16595;BME280;8410;52.532;13.336;2022-12-08T05:15:44;100206.47;;;5.55;86.64
16595;BME280;8410;52.532;13.336;2022-12-08T05:18:11;100203.47;;;5.71;86.47
16595;BME280;8410;52.532;13.336;2022-12-08T05:20:40;100205.16;;;5.72;86.59
16595;BME280;8410;52.532;13.336;2022-12-08T05:23:07;100201.69;;;5.67;86.40
16595;BME280;8410;52.532;13.336;2022-12-08T05:25:35;100206.41;;;5.51;85.97
16595;BME280;8410;52.532;13.336;2022-12-08T05:28:02;100204.38;;;5.73;87.07
16595;BME280;8410;52.532;13.336;2022-12-08T05:30:50;100200.72;;;5.27;87.85
16595;BME280;8410;52.532;13.336;2022-12-08T05:33:18;100197.47;;;5.34;86.58
16595;BME280;8410;52.532;13.336;2022-12-08T05:35:46;100198.63;;;5.47;86.29
16595;BME280;8410;52.532;13.336;2022-12-08T05:38:14;100194.63;;;5.57;87.51
16595;BME280;8410;52.532;13.336;2022-12-08T05:40:41;100191.75;;;5.43;87.52
16595;BME280;8410;52.532;13.336;2022-12-08T05:43:09;100188.78;;;5.62;88.03
16595;BME280;8410;52.532;13.336;2022-12-08T05:45:37;100184.97;;;5.81;87.56
16595;BME280;8410;52.532;13.336;2022-12-08T05:48:04;100185.84;;;5.45;88.12
16595;BME280;8410;52.532;13.336;2022-12-08T05:50:32;100190.88;;;5.79;87.29
16595;BME280;8410;52.532;13.336;2022-12-08T05:53:01;100200.50;;;5.90;86.72
16595;BME280;8410;52.532;13.336;2022-12-08T05:55:28;100185.59;;;5.71;87.41
16595;BME280;8410;52.532;13.336;2022-12-08T05:57:55;100189.94;;;5.75;86.55
16595;BME280;8410;52.532;13.336;2022-12-08T06:00:28;100188.94;;;5.68;87.00
16595;BME280;8410;52.532;13.336;2022-12-08T06:02:56;100185.28;;;5.57;88.22
16595;BME280;8410;52.532;13.336;2022-12-08T06:05:23;100179.03;;;5.82;88.07
16595;BME280;8410;52.532;13.336;2022-12-08T06:07:50;100179.06;;;5.84;87.01
16595;BME280;8410;52.532;13.336;2022-12-08T06:10:19;100180.84;;;5.86;87.24
16595;BME280;8410;52.532;13.336;2022-12-08T06:12:47;100181.78;;;5.53;88.95
16595;BME280;8410;52.532;13.336;2022-12-08T06:15:14;100186.78;;;5.87;87.27
16595;BME280;8410;52.532;13.336;2022-12-08T06:17:42;100185.66;;;4.73;87.79
16595;BME280;8410;52.532;13.336;2022-12-08T06:20:09;100178.63;;;5.29;90.37
16595;BME280;8410;52.532;13.336;2022-12-08T06:22:37;100179.38;;;5.60;88.42
16595;BME280;8410;52.532;13.336;2022-12-08T06:25:05;100180.66;;;5.79;87.61
16595;BME280;8410;52.532;13.336;2022-12-08T06:27:36;100180.00;;;5.87;87.52
16595;BME280;8410;52.532;13.336;2022-12-08T06:30:05;100187.00;;;5.94;87.27
16595;BME280;8410;52.532;13.336;2022-12-08T06:32:33;100182.03;;;6.01;86.85
16595;BME280;8410;52.532;13.336;2022-12-08T06:35:00;100186.75;;;5.85;87.51
16595;BME280;8410;52.532;13.336;2022-12-08T06:37:28;100192.75;;;5.49;87.67
16595;BME280;8410;52.532;13.336;2022-12-08T06:39:55;100185.63;;;5.72;88.62
16595;BME280;8410;52.532;13.336;2022-12-08T06:42:23;100195.31;;;5.87;87.73
16595;BME280;8410;52.532;13.336;2022-12-08T06:45:10;100186.75;;;5.85;87.05
16595;BME280;8410;52.532;13.336;2022-12-08T06:47:38;100193.25;;;5.71;88.48
16595;BME280;8410;52.532;13.336;2022-12-08T06:50:07;100185.16;;;5.90;87.84
16595;BME280;8410;52.532;13.336;2022-12-08T06:52:35;100180.88;;;5.51;88.65
16595;BME280;8410;52.532;13.336;2022-12-08T06:55:15;100180.66;;;5.79;88.26
16595;BME280;8410;52.532;13.336;2022-12-08T06:58:02;100187.63;;;5.49;87.23
16595;BME280;8410;52.532;13.336;2022-12-08T07:00:31;100190.22;;;5.87;87.53
16595;BME280;8410;52.532;13.336;2022-12-08T07:02:58;100191.13;;;5.89;87.28
16595;BME280;8410;52.532;13.336;2022-12-08T07:05:26;100203.03;;;5.89;87.68
16595;BME280;8410;52.532;13.336;2022-12-08T07:07:53;100194.28;;;6.17;87.76
16595;BME280;8410;52.532;13.336;2022-12-08T07:10:20;100198.50;;;6.13;86.87
16595;BME280;8410;52.532;13.336;2022-12-08T07:12:48;100194.22;;;6.14;86.79
16595;BME280;8410;52.532;13.336;2022-12-08T07:15:15;100203.09;;;5.92;87.48
16595;BME280;8410;52.532;13.336;2022-12-08T07:17:44;100202.41;;;5.97;87.70
16595;BME280;8410;52.532;13.336;2022-12-08T07:20:12;100205.41;;;6.17;87.77
16595;BME280;8410;52.532;13.336;2022-12-08T07:22:39;100200.25;;;6.16;86.56
16595;BME280;8410;52.532;13.336;2022-12-08T07:25:07;100200.00;;;6.05;88.75
16595;BME280;8410;52.532;13.336;2022-12-08T07:27:35;100194.84;;;6.43;87.31
16595;BME280;8410;52.532;13.336;2022-12-08T07:30:03;100195.88;;;6.12;86.71
16595;BME280;8410;52.532;13.336;2022-12-08T07:32:31;100201.34;;;6.27;86.88
16595;BME280;8410;52.532;13.336;2022-12-08T07:35:00;100197.06;;;6.26;86.06
16595;BME280;8410;52.532;13.336;2022-12-08T07:37:27;100194.53;;;6.28;85.87
16595;BME280;8410;52.532;13.336;2022-12-08T07:39:54;100198.88;;;6.32;86.04
16595;BME280;8410;52.532;13.336;2022-12-08T07:42:22;100198.25;;;6.42;86.64
16595;BME280;8410;52.532;13.336;2022-12-08T07:44:50;100191.72;;;6.15;86.97
16595;BME280;8410;52.532;13.336;2022-12-08T07:47:17;100198.69;;;6.23;86.71
16595;BME280;8410;52.532;13.336;2022-12-08T07:49:44;100193.72;;;5.92;87.97
16595;BME280;8410;52.532;13.336;2022-12-08T07:52:13;100199.09;;;6.43;87.31
16595;BME280;8410;52.532;13.336;2022-12-08T07:54:40;100199.47;;;6.20;86.27
16595;BME280;8410;52.532;13.336;2022-12-08T07:57:08;100194.34;;;5.81;87.74
16595;BME280;8410;52.532;13.336;2022-12-08T07:59:36;100195.53;;;6.36;86.86
16595;BME280;8410;52.532;13.336;2022-12-08T08:02:03;100199.22;;;6.08;85.67
16595;BME280;8410;52.532;13.336;2022-12-08T08:04:50;100193.19;;;6.47;87.41
16595;BME280;8410;52.532;13.336;2022-12-08T08:07:19;100197.41;;;6.43;86.28
16595;BME280;8410;52.532;13.336;2022-12-08T08:09:46;100200.59;;;6.33;86.22
16595;BME280;8410;52.532;13.336;2022-12-08T08:12:14;100210.00;;;6.34;86.72
16595;BME280;8410;52.532;13.336;2022-12-08T08:14:58;100211.16;;;6.09;87.56
16595;BME280;8410;52.532;13.336;2022-12-08T08:17:26;100215.41;;;6.48;86.89
16595;BME280;8410;52.532;13.336;2022-12-08T08:19:54;100217.31;;;6.58;86.38
16595;BME280;8410;52.532;13.336;2022-12-08T08:22:23;100213.16;;;6.22;85.65
16595;BME280;8410;52.532;13.336;2022-12-08T08:24:51;100214.59;;;6.50;87.13
16595;BME280;8410;52.532;13.336;2022-12-08T08:27:19;100213.00;;;6.55;87.13
16595;BME280;8410;52.532;13.336;2022-12-08T08:29:46;100203.38;;;6.44;86.27
16595;BME280;8410;52.532;13.336;2022-12-08T08:32:13;100200.38;;;6.63;86.42
16595;BME280;8410;52.532;13.336;2022-12-08T08:34:41;100206.59;;;5.95;86.23
16595;BME280;8410;52.532;13.336;2022-12-08T08:37:08;100210.41;;;6.54;87.16
16595;BME280;8410;52.532;13.336;2022-12-08T08:39:37;100208.31;;;6.34;86.28
16595;BME280;8410;52.532;13.336;2022-12-08T08:42:05;100205.88;;;6.40;85.72
16595;BME280;8410;52.532;13.336;2022-12-08T08:44:32;100210.22;;;6.45;86.72
16595;BME280;8410;52.532;13.336;2022-12-08T08:47:00;100210.41;;;6.54;85.49
16595;BME280;8410;52.532;13.336;2022-12-08T08:49:27;100208.44;;;6.40;87.28
16595;BME280;8410;52.532;13.336;2022-12-08T08:51:54;100204.16;;;6.83;85.88
16595;BME280;8410;52.532;13.336;2022-12-08T08:54:22;100209.41;;;6.90;86.32
16595;BME280;8410;52.532;13.336;2022-12-08T08:56:51;100200.00;;;6.89;84.71
16595;BME280;8410;52.532;13.336;2022-12-08T08:59:18;100203.69;;;6.59;86.71
16595;BME280;8410;52.532;13.336;2022-12-08T09:01:46;100195.66;;;6.84;86.22
16595;BME280;8410;52.532;13.336;2022-12-08T09:04:13;100196.94;;;7.08;84.90
16595;BME280;8410;52.532;13.336;2022-12-08T09:06:41;100192.94;;;7.24;84.51
16595;BME280;8410;52.532;13.336;2022-12-08T09:09:10;100183.63;;;6.80;84.11
16595;BME280;8410;52.532;13.336;2022-12-08T09:11:38;100179.19;;;7.17;84.87
16595;BME280;8410;52.532;13.336;2022-12-08T09:14:09;100187.50;;;7.04;84.89
16595;BME280;8410;52.532;13.336;2022-12-08T09:16:37;100191.41;;;6.85;85.40
16595;BME280;8410;52.532;13.336;2022-12-08T09:19:08;100189.06;;;6.96;84.88
16595;BME280;8410;52.532;13.336;2022-12-08T09:21:35;100187.69;;;7.16;84.97
16595;BME280;8410;52.532;13.336;2022-12-08T09:24:03;100185.69;;;7.00;85.65
16595;BME280;8410;52.532;13.336;2022-12-08T09:26:30;100178.00;;;6.53;86.75
16595;BME280;8410;52.532;13.336;2022-12-08T09:28:58;100178.81;;;6.96;86.48
16595;BME280;8410;52.532;13.336;2022-12-08T09:31:27;100169.13;;;6.79;85.51
16595;BME280;8410;52.532;13.336;2022-12-08T09:33:54;100172.19;;;7.07;84.68
16595;BME280;8410;52.532;13.336;2022-12-08T09:36:21;100168.00;;;7.12;85.34
16595;BME280;8410;52.532;13.336;2022-12-08T09:38:49;100166.16;;;7.05;83.73
16595;BME280;8410;52.532;13.336;2022-12-08T09:41:22;100169.09;;;6.78;85.81
16595;BME280;8410;52.532;13.336;2022-12-08T09:44:17;100160.59;;;7.27;84.83
16595;BME280;8410;52.532;13.336;2022-12-08T09:46:50;100162.16;;;7.19;84.26
16595;BME280;8410;52.532;13.336;2022-12-08T09:49:25;100154.72;;;7.35;84.27
16595;BME280;8410;52.532;13.336;2022-12-08T09:51:56;100152.00;;;7.25;84.48
16595;BME280;8410;52.532;13.336;2022-12-08T09:54:30;100160.06;;;6.97;85.42
16595;BME280;8410;52.532;13.336;2022-12-08T09:57:02;100162.31;;;7.28;85.07
16595;BME280;8410;52.532;13.336;2022-12-08T09:59:33;100159.97;;;6.92;83.30
16595;BME280;8410;52.532;13.336;2022-12-08T10:02:19;100146.63;;;7.10;85.00
16595;BME280;8410;52.532;13.336;2022-12-08T10:04:47;100150.09;;;7.12;85.75
16595;BME280;8410;52.532;13.336;2022-12-08T10:07:17;100154.75;;;7.36;83.50
16595;BME280;8410;52.532;13.336;2022-12-08T10:09:51;100154.03;;;6.93;86.60
16595;BME280;8410;52.532;13.336;2022-12-08T10:12:29;100158.88;;;6.78;85.94
16595;BME280;8410;52.532;13.336;2022-12-08T10:15:01;100153.38;;;7.05;85.45
16595;BME280;8410;52.532;13.336;2022-12-08T10:17:35;100157.00;;;6.69;85.41
16595;BME280;8410;52.532;13.336;2022-12-08T10:20:10;100145.56;;;6.97;87.45
16595;BME280;8410;52.532;13.336;2022-12-08T10:22:39;100154.06;;;6.49;85.56
16595;BME280;8410;52.532;13.336;2022-12-08T10:25:16;100155.31;;;6.70;86.46
16595;BME280;8410;52.532;13.336;2022-12-08T10:27:45;100144.59;;;6.91;88.72
16595;BME280;8410;52.532;13.336;2022-12-08T10:30:17;100143.00;;;6.96;87.13
16595;BME280;8410;52.532;13.336;2022-12-08T10:32:48;100135.75;;;7.23;84.87
16595;BME280;8410;52.532;13.336;2022-12-08T10:35:18;100134.22;;;7.33;86.18
16595;BME280;8410;52.532;13.336;2022-12-08T10:37:54;100132.06;;;7.59;83.96
16595;BME280;8410;52.532;13.336;2022-12-08T10:40:26;100132.75;;;7.50;84.47
16595;BME280;8410;52.532;13.336;2022-12-08T10:43:13;100129.50;;;7.61;83.42
16595;BME280;8410;52.532;13.336;2022-12-08T10:45:41;100129.41;;;7.00;84.27
16595;BME280;8410;52.532;13.336;2022-12-08T10:48:16;100125.09;;;6.97;85.37
16595;BME280;8410;52.532;13.336;2022-12-08T10:50:45;100136.66;;;6.75;85.28
16595;BME280;8410;52.532;13.336;2022-12-08T10:53:19;100117.31;;;6.90;87.74
16595;BME280;8410;52.532;13.336;2022-12-08T10:55:49;100125.25;;;7.08;85.10
16595;BME280;8410;52.532;13.336;2022-12-08T10:58:28;100133.19;;;6.72;87.02
16595;BME280;8410;52.532;13.336;2022-12-08T11:01:16;100122.47;;;7.46;85.13
16595;BME280;8410;52.532;13.336;2022-12-08T11:03:48;100115.53;;;7.39;85.81
16595;BME280;8410;52.532;13.336;2022-12-08T11:06:18;100111.66;;;7.09;83.83
16595;BME280;8410;52.532;13.336;2022-12-08T11:08:51;100116.47;;;7.45;85.80
16595;BME280;8410;52.532;13.336;2022-12-08T11:11:20;100111.03;;;7.24;84.62
16595;BME280;8410;52.532;13.336;2022-12-08T11:13:54;100114.81;;;6.94;85.28
16595;BME280;8410;52.532;13.336;2022-12-08T11:16:26;100120.22;;;7.11;86.47
16595;BME280;8410;52.532;13.336;2022-12-08T11:19:15;100121.03;;;6.16;90.27
16595;BME280;8410;52.532;13.336;2022-12-08T11:21:43;100123.25;;;6.42;87.52
16595;BME280;8410;52.532;13.336;2022-12-08T11:24:22;100122.00;;;6.68;88.08
16595;BME280;8410;52.532;13.336;2022-12-08T11:26:59;100114.22;;;6.62;87.54
16595;BME280;8410;52.532;13.336;2022-12-08T11:29:31;100110.66;;;7.02;85.75
16595;BME280;8410;52.532;13.336;2022-12-08T11:32:01;100105.88;;;7.22;83.85
16595;BME280;8410;52.532;13.336;2022-12-08T11:37:51;100103.56;;;6.86;85.72
16595;BME280;8410;52.532;13.336;2022-12-08T11:40:40;100112.19;;;6.90;86.45
16595;BME280;8410;52.532;13.336;2022-12-08T11:43:13;100111.63;;;7.07;85.87
16595;BME280;8410;52.532;13.336;2022-12-08T11:45:42;100107.78;;;6.82;85.14
16595;BME280;8410;52.532;13.336;2022-12-08T11:48:14;100121.41;;;6.81;87.70
16595;BME280;8410;52.532;13.336;2022-12-08T11:50:46;100113.53;;;7.19;86.20
16595;BME280;8410;52.532;13.336;2022-12-08T11:53:23;100122.41;;;6.43;84.14
16595;BME280;8410;52.532;13.336;2022-12-08T11:55:56;100119.16;;;6.98;87.58
16595;BME280;8410;52.532;13.336;2022-12-08T11:58:31;100120.69;;;6.89;87.02
16595;BME280;8410;52.532;13.336;2022-12-08T12:01:02;100113.22;;;7.02;87.64
16595;BME280;8410;52.532;13.336;2022-12-08T12:03:34;100117.78;;;7.20;85.68
16595;BME280;8410;52.532;13.336;2022-12-08T12:06:16;100119.81;;;6.88;85.53
16595;BME280;8410;52.532;13.336;2022-12-08T12:09:14;100120.31;;;6.67;87.38
16595;BME280;8410;52.532;13.336;2022-12-08T12:11:51;100110.72;;;7.04;87.39
16595;BME280;8410;52.532;13.336;2022-12-08T12:17:45;100108.41;;;7.21;86.59
16595;BME280;8410;52.532;13.336;2022-12-08T12:20:20;100115.19;;;7.19;86.36
16595;BME280;8410;52.532;13.336;2022-12-08T12:22:55;100110.81;;;7.10;86.69
16595;BME280;8410;52.532;13.336;2022-12-08T12:25:26;100111.69;;;7.12;86.44
16595;BME280;8410;52.532;13.336;2022-12-08T12:27:58;100113.56;;;6.72;88.92
16595;BME280;8410;52.532;13.336;2022-12-08T12:30:35;100108.06;;;6.98;87.27
16595;BME280;8410;52.532;13.336;2022-12-08T12:33:16;100106.78;;;7.26;88.54
16595;BME280;8410;52.532;13.336;2022-12-08T12:35:45;100104.66;;;7.55;86.84
16595;BME280;8410;52.532;13.336;2022-12-08T12:38:20;100104.75;;;7.61;85.73
16595;BME280;8410;52.532;13.336;2022-12-08T12:41:09;100109.03;;;7.06;84.63
16595;BME280;8410;52.532;13.336;2022-12-08T12:43:37;100104.56;;;7.46;85.95
16595;BME280;8410;52.532;13.336;2022-12-08T12:46:39;100107.50;;;6.67;86.29
16595;BME280;8410;52.532;13.336;2022-12-08T12:55:20;100110.31;;;7.33;86.21
16595;BME280;8410;52.532;13.336;2022-12-08T12:57:51;100102.00;;;7.47;86.20
16595;BME280;8410;52.532;13.336;2022-12-08T13:00:20;100102.66;;;7.33;86.80
16595;BME280;8410;52.532;13.336;2022-12-08T13:02:48;100105.69;;;7.10;86.57
16595;BME280;8410;52.532;13.336;2022-12-08T13:05:19;100095.75;;;7.28;88.41
16595;BME280;8410;52.532;13.336;2022-12-08T13:07:50;100109.75;;;7.52;87.38
16595;BME280;8410;52.532;13.336;2022-12-08T13:10:20;100096.50;;;7.23;86.53
16595;BME280;8410;52.532;13.336;2022-12-08T13:13:06;100102.56;;;7.29;85.59
16595;BME280;8410;52.532;13.336;2022-12-08T13:15:47;100100.81;;;7.25;85.46
16595;BME280;8410;52.532;13.336;2022-12-08T13:18:18;100110.91;;;6.68;88.06
16595;BME280;8410;52.532;13.336;2022-12-08T13:21:03;100107.22;;;6.99;87.30
16595;BME280;8410;52.532;13.336;2022-12-08T13:23:43;100098.13;;;7.18;84.61
16595;BME280;8410;52.532;13.336;2022-12-08T13:26:14;100106.94;;;6.83;84.75
16595;BME280;8410;52.532;13.336;2022-12-08T13:31:52;100092.75;;;7.02;86.23
16595;BME280;8410;52.532;13.336;2022-12-08T13:34:29;100105.59;;;7.04;85.37
16595;BME280;8410;52.532;13.336;2022-12-08T13:37:19;100110.53;;;6.45;87.10